createdAt,value
2023-02-08T00:02:19.394Z,55.14
2023-02-08T00:04:47.604Z,54.48
2023-02-08T00:07:16.025Z,54.48
2023-02-08T00:09:43.875Z,54.38
2023-02-08T00:12:11.712Z,55.20
2023-02-08T00:14:40.519Z,54.82
2023-02-08T00:17:09.365Z,55.20
2023-02-08T00:19:37.802Z,55.49
2023-02-08T00:22:05.426Z,55.14
2023-02-08T00:24:33.380Z,56.25
2023-02-08T00:27:01.624Z,56.54
2023-02-08T00:29:29.563Z,56.70
2023-02-08T00:31:59.017Z,55.74
2023-02-08T00:34:27.944Z,56.33
2023-02-08T00:36:55.536Z,56.26
2023-02-08T00:39:24.558Z,56.81
2023-02-08T00:41:53.191Z,56.88
2023-02-08T00:44:25.641Z,57.01
2023-02-08T00:46:55.130Z,56.71
2023-02-08T00:49:23.420Z,56.36
2023-02-08T00:51:52.183Z,56.30
2023-02-08T00:54:21.846Z,56.70
2023-02-08T00:56:51.730Z,56.77
2023-02-08T00:59:23.449Z,56.57
2023-02-08T01:02:04.268Z,55.87
2023-02-08T01:04:36.832Z,55.89
2023-02-08T01:07:10.365Z,55.50
2023-02-08T01:09:40.722Z,55.15
2023-02-08T01:12:17.315Z,56.02
2023-02-08T01:14:47.482Z,56.39
2023-02-08T01:17:15.069Z,56.50
2023-02-08T01:19:42.716Z,56.29
2023-02-08T01:22:10.562Z,56.45
2023-02-08T01:24:37.882Z,56.18
2023-02-08T01:27:05.253Z,56.12
2023-02-08T01:29:33.977Z,56.02
2023-02-08T01:32:01.910Z,56.21
2023-02-08T01:34:30.164Z,56.24
2023-02-08T01:37:01.430Z,56.01
2023-02-08T01:39:28.716Z,56.05
2023-02-08T01:41:56.103Z,55.99
2023-02-08T01:45:02.647Z,56.01
2023-02-08T01:47:30.770Z,56.09
2023-02-08T01:49:58.991Z,56.10
2023-02-08T01:52:28.796Z,55.92
2023-02-08T01:55:30.942Z,56.12
2023-02-08T01:58:06.579Z,55.96
2023-02-08T02:00:35.037Z,56.09
2023-02-08T02:03:04.845Z,56.25
2023-02-08T02:05:35.834Z,55.76
2023-02-08T02:08:03.947Z,55.86
2023-02-08T02:10:34.109Z,55.38
2023-02-08T02:13:12.627Z,55.58
2023-02-08T02:15:44.998Z,55.23
2023-02-08T02:18:36.204Z,55.39
2023-02-08T02:21:41.513Z,55.86
2023-02-08T02:25:00.251Z,55.47
2023-02-08T02:28:15.221Z,55.24
2023-02-08T02:31:04.089Z,55.17
2023-02-08T02:34:02.337Z,54.60
2023-02-08T02:36:47.603Z,54.92
2023-02-08T02:39:36.030Z,54.64
2023-02-08T02:42:59.604Z,55.23
2023-02-08T02:45:55.617Z,55.36
2023-02-08T02:48:59.225Z,54.77
2023-02-08T02:51:39.040Z,55.18
2023-02-08T02:54:08.895Z,55.55
2023-02-08T02:56:43.034Z,54.41
2023-02-08T02:59:12.942Z,55.28
2023-02-08T03:01:43.141Z,55.25
2023-02-08T03:04:19.772Z,55.27
2023-02-08T03:07:17.934Z,55.22
2023-02-08T03:10:15.701Z,54.94
2023-02-08T03:12:59.142Z,55.58
2023-02-08T03:16:17.315Z,55.53
2023-02-08T03:18:44.908Z,55.98
2023-02-08T03:21:41.875Z,55.68
2023-02-08T03:24:13.664Z,55.05
2023-02-08T03:27:08.826Z,55.77
2023-02-08T03:30:24.284Z,54.95
2023-02-08T03:33:12.128Z,54.66
2023-02-08T03:36:25.036Z,54.48
2023-02-08T03:39:22.664Z,54.62
2023-02-08T03:42:05.568Z,55.50
2023-02-08T03:45:17.367Z,55.03
2023-02-08T03:48:07.132Z,54.92
2023-02-08T03:50:38.112Z,54.58
2023-02-08T03:53:08.458Z,54.85
2023-02-08T03:55:46.131Z,53.97
2023-02-08T03:58:34.306Z,53.64
2023-02-08T04:01:24.451Z,54.55
2023-02-08T04:03:54.516Z,55.08
2023-02-08T04:06:24.342Z,55.48
2023-02-08T04:08:53.263Z,55.16
2023-02-08T04:11:21.515Z,53.93
2023-02-08T04:14:08.097Z,55.10
2023-02-08T04:16:51.831Z,54.83
2023-02-08T04:19:31.870Z,54.94
2023-02-08T04:22:14.306Z,54.80
2023-02-08T04:25:09.796Z,54.80
2023-02-08T04:27:38.101Z,54.11
2023-02-08T04:30:06.433Z,55.29
2023-02-08T04:32:34.243Z,54.60
2023-02-08T04:35:43.608Z,54.32
2023-02-08T04:38:13.628Z,54.24
2023-02-08T04:40:43.520Z,54.24
2023-02-08T04:43:12.696Z,53.64
2023-02-08T04:46:09.458Z,53.62
2023-02-08T04:48:37.577Z,53.54
2023-02-08T04:51:05.816Z,53.66
2023-02-08T04:53:34.974Z,53.30
2023-02-08T04:56:03.865Z,52.50
2023-02-08T04:58:32.124Z,52.92
2023-02-08T05:01:00.036Z,53.92
2023-02-08T05:03:31.494Z,53.66
2023-02-08T05:06:01.775Z,53.02
2023-02-08T05:08:29.640Z,53.16
2023-02-08T05:10:57.994Z,53.14
2023-02-08T05:13:26.267Z,53.15
2023-02-08T05:15:57.370Z,53.14
2023-02-08T05:18:25.464Z,53.86
2023-02-08T05:21:00.989Z,53.34
2023-02-08T05:23:29.977Z,53.74
2023-02-08T05:25:59.255Z,54.14
2023-02-08T05:28:27.193Z,54.15
2023-02-08T05:30:55.720Z,53.88
2023-02-08T05:33:24.804Z,53.99
2023-02-08T05:35:54.854Z,54.08
2023-02-08T05:38:23.932Z,53.65
2023-02-08T05:40:53.305Z,52.51
2023-02-08T05:43:21.639Z,52.74
2023-02-08T05:45:51.405Z,50.77
2023-02-08T05:48:21.136Z,50.42
2023-02-08T05:50:49.110Z,49.92
2023-02-08T05:53:21.307Z,48.50
2023-02-08T05:55:49.167Z,48.86
2023-02-08T05:58:20.522Z,49.20
2023-02-08T06:00:55.507Z,48.64
2023-02-08T06:03:24.977Z,48.80
2023-02-08T06:06:12.439Z,49.38
2023-02-08T06:08:45.321Z,48.89
2023-02-08T06:11:14.669Z,49.24
2023-02-08T06:13:44.080Z,48.40
2023-02-08T06:16:19.537Z,48.02
2023-02-08T06:18:47.841Z,48.14
2023-02-08T06:21:17.911Z,47.89
2023-02-08T06:23:52.338Z,47.59
2023-02-08T06:26:26.751Z,48.08
2023-02-08T06:28:54.913Z,47.98
2023-02-08T06:31:40.139Z,46.80
2023-02-08T06:34:22.350Z,47.21
2023-02-08T06:36:52.937Z,47.22
2023-02-08T06:39:27.190Z,46.99
2023-02-08T06:42:07.754Z,47.43
2023-02-08T06:44:35.854Z,48.01
2023-02-08T06:47:04.557Z,48.26
2023-02-08T06:49:38.876Z,46.58
2023-02-08T06:52:08.722Z,46.00
2023-02-08T06:54:42.340Z,45.83
2023-02-08T06:57:15.274Z,46.97
2023-02-08T06:59:44.537Z,47.00
2023-02-08T07:02:17.582Z,46.64
2023-02-08T07:04:50.456Z,47.16
2023-02-08T07:07:20.507Z,46.80
2023-02-08T07:09:49.062Z,46.58
2023-02-08T07:12:19.661Z,46.37
2023-02-08T07:14:54.515Z,46.36
2023-02-08T07:17:23.971Z,45.57
2023-02-08T07:19:52.858Z,46.37
2023-02-08T07:22:22.646Z,45.33
2023-02-08T07:24:50.863Z,45.88
2023-02-08T07:27:21.321Z,45.41
2023-02-08T07:29:51.734Z,45.50
2023-02-08T07:32:20.364Z,45.02
2023-02-08T07:34:48.410Z,45.29
2023-02-08T07:37:26.814Z,45.82
2023-02-08T07:39:55.913Z,45.58
2023-02-08T07:42:31.281Z,46.12
2023-02-08T07:45:09.577Z,45.09
2023-02-08T07:47:39.352Z,44.89
2023-02-08T07:50:10.317Z,44.97
2023-02-08T07:52:38.574Z,45.56
2023-02-08T07:55:13.560Z,44.81
2023-02-08T07:57:43.594Z,45.01
2023-02-08T08:00:15.674Z,45.51
2023-02-08T08:05:34.569Z,45.74
2023-02-08T08:08:05.486Z,44.19
2023-02-08T08:10:42.843Z,44.79
2023-02-08T08:15:53.386Z,44.60
2023-02-08T08:18:21.566Z,45.36
2023-02-08T08:20:52.876Z,46.89
2023-02-08T08:23:23.299Z,46.52
2023-02-08T08:25:51.940Z,46.27
2023-02-08T08:28:20.241Z,46.80
2023-02-08T08:30:50.426Z,47.09
2023-02-08T08:33:29.213Z,46.67
2023-02-08T08:35:57.695Z,47.44
2023-02-08T08:38:25.711Z,45.29
2023-02-08T08:40:53.510Z,45.14
2023-02-08T08:43:22.567Z,45.33
2023-02-08T08:45:53.058Z,45.96
2023-02-08T08:48:26.386Z,46.66
2023-02-08T08:50:56.858Z,48.17
2023-02-08T08:53:25.978Z,46.94
2023-02-08T08:55:57.685Z,47.43
2023-02-08T08:58:25.953Z,47.58
2023-02-08T09:01:00.329Z,47.97
2023-02-08T09:03:30.381Z,46.81
2023-02-08T09:05:59.417Z,46.49
2023-02-08T09:08:27.320Z,46.40
2023-02-08T09:11:04.277Z,45.99
2023-02-08T09:13:33.217Z,46.31
2023-02-08T09:16:11.265Z,46.06
2023-02-08T09:18:43.202Z,46.59
2023-02-08T09:21:24.323Z,46.46
2023-02-08T09:23:53.078Z,47.08
2023-02-08T09:26:24.867Z,48.21
2023-02-08T09:28:55.467Z,47.22
2023-02-08T09:31:28.014Z,46.86
2023-02-08T09:33:58.169Z,47.16
2023-02-08T09:36:30.206Z,45.96
2023-02-08T09:39:03.168Z,46.12
2023-02-08T09:41:57.132Z,46.16
2023-02-08T09:44:51.943Z,45.68
2023-02-08T09:47:30.647Z,46.85
2023-02-08T09:50:01.955Z,46.14
2023-02-08T09:52:43.111Z,45.61
2023-02-08T09:55:40.257Z,45.70
2023-02-08T09:58:28.625Z,45.84
2023-02-08T10:01:00.528Z,44.91
2023-02-08T10:03:37.350Z,43.51
2023-02-08T10:06:26.286Z,43.35
2023-02-08T10:08:55.362Z,43.93
2023-02-08T10:11:47.293Z,43.87
2023-02-08T10:14:43.458Z,42.88
2023-02-08T10:17:47.492Z,43.07
2023-02-08T10:20:41.424Z,43.19
2023-02-08T10:23:41.849Z,43.25
2023-02-08T10:26:15.274Z,42.30
2023-02-08T10:28:44.165Z,43.47
2023-02-08T10:31:24.366Z,43.38
2023-02-08T10:34:08.131Z,41.51
2023-02-08T10:36:52.158Z,42.64
2023-02-08T10:39:35.887Z,43.85
2023-02-08T10:42:14.829Z,42.03
2023-02-08T10:45:06.556Z,40.09
2023-02-08T10:48:02.133Z,40.13
2023-02-08T10:50:38.646Z,40.40
2023-02-08T10:56:05.673Z,39.00
2023-02-08T10:58:52.417Z,39.24
2023-02-08T11:01:34.921Z,41.12
2023-02-08T11:04:14.507Z,41.51
2023-02-08T11:06:51.103Z,39.30
2023-02-08T11:09:32.481Z,39.31
2023-02-08T11:14:57.461Z,39.63
2023-02-08T11:17:35.879Z,40.13
2023-02-08T11:20:33.789Z,38.38
2023-02-08T11:23:31.611Z,39.49
2023-02-08T11:26:19.239Z,40.24
2023-02-08T11:29:02.874Z,39.87
2023-02-08T11:31:32.649Z,42.09
2023-02-08T11:34:07.000Z,40.24
2023-02-08T11:36:52.769Z,39.93
2023-02-08T11:39:44.436Z,40.30
2023-02-08T11:42:29.128Z,40.41
2023-02-08T11:45:09.377Z,40.86
2023-02-08T11:47:47.288Z,40.08
2023-02-08T11:50:47.118Z,40.16
2023-02-08T11:53:29.322Z,38.87
2023-02-08T11:56:35.192Z,39.06
2023-02-08T11:59:03.883Z,38.08
2023-02-08T12:01:37.748Z,37.29
2023-02-08T12:04:17.839Z,37.62
2023-02-08T12:07:17.698Z,38.35
2023-02-08T12:10:05.392Z,36.99
2023-02-08T12:12:38.640Z,36.70
2023-02-08T12:15:23.069Z,37.08
2023-02-08T12:18:22.318Z,37.51
2023-02-08T12:21:08.444Z,37.36
2023-02-08T12:23:48.068Z,38.05
2023-02-08T12:29:48.259Z,38.14
2023-02-08T12:32:35.337Z,37.17
2023-02-08T12:35:21.927Z,38.44
2023-02-08T12:38:23.541Z,38.26
2023-02-08T12:41:18.468Z,39.05
2023-02-08T12:44:13.721Z,38.74
2023-02-08T12:46:51.065Z,38.77
2023-02-08T12:49:24.590Z,38.71
2023-02-08T12:52:14.410Z,37.97
2023-02-08T12:54:59.240Z,36.20
2023-02-08T12:57:31.753Z,35.82
2023-02-08T13:00:18.500Z,36.56
2023-02-08T13:03:37.212Z,36.98
2023-02-08T13:06:08.190Z,37.88
2023-02-08T13:09:08.239Z,37.43
2023-02-08T13:11:56.126Z,37.63
2023-02-08T13:14:48.466Z,36.74
2023-02-08T13:17:38.505Z,36.71
2023-02-08T13:20:31.133Z,36.60
2023-02-08T13:23:11.759Z,36.16
2023-02-08T13:26:00.821Z,36.43
2023-02-08T13:28:39.442Z,35.92
2023-02-08T13:34:55.486Z,36.88
2023-02-08T13:37:49.556Z,36.68
2023-02-08T13:40:33.256Z,36.39
2023-02-08T13:43:15.736Z,36.71
2023-02-08T13:45:56.660Z,37.63
2023-02-08T13:51:59.914Z,37.03
2023-02-08T13:57:49.844Z,36.16
2023-02-08T14:00:28.133Z,36.53
2023-02-08T14:03:26.232Z,35.89
2023-02-08T14:06:27.117Z,35.58
2023-02-08T14:09:04.476Z,36.48
2023-02-08T14:12:01.708Z,35.56
2023-02-08T14:14:39.728Z,35.68
2023-02-08T14:17:22.561Z,36.56
2023-02-08T14:20:07.432Z,36.60
2023-02-08T14:22:40.355Z,37.30
2023-02-08T14:25:20.371Z,36.31
2023-02-08T14:28:01.308Z,36.41
2023-02-08T14:30:39.227Z,37.44
2023-02-08T14:33:14.486Z,35.96
2023-02-08T14:35:55.210Z,35.97
2023-02-08T14:38:24.421Z,35.03
2023-02-08T14:41:01.328Z,35.55
2023-02-08T14:46:38.064Z,34.96
2023-02-08T14:49:18.331Z,34.23
2023-02-08T14:51:52.059Z,37.02
2023-02-08T14:57:41.015Z,35.93
2023-02-08T15:00:25.654Z,36.02
2023-02-08T15:02:56.112Z,35.49
2023-02-08T15:05:29.518Z,36.08
2023-02-08T15:08:03.450Z,36.44
2023-02-08T15:10:33.319Z,36.56
2023-02-08T15:13:18.724Z,36.57
2023-02-08T15:15:53.305Z,36.40
2023-02-08T15:21:13.845Z,35.97
2023-02-08T15:24:05.902Z,36.70
2023-02-08T15:26:38.509Z,37.18
2023-02-08T15:29:44.274Z,37.26
2023-02-08T15:37:44.145Z,36.94
2023-02-08T15:40:36.259Z,36.63
2023-02-08T15:43:19.349Z,36.34
2023-02-08T15:46:11.319Z,36.13
2023-02-08T15:48:49.655Z,36.89
2023-02-08T15:51:24.843Z,37.01
2023-02-08T15:53:58.164Z,36.49
2023-02-08T15:56:40.069Z,36.75
2023-02-08T15:59:25.233Z,36.27
2023-02-08T16:04:44.125Z,36.32
2023-02-08T16:07:54.069Z,36.25
2023-02-08T16:13:21.534Z,36.55
2023-02-08T16:16:22.871Z,36.86
2023-02-08T16:19:03.494Z,37.02
2023-02-08T16:21:40.481Z,36.96
2023-02-08T16:24:12.214Z,36.96
2023-02-08T16:26:48.625Z,37.01
2023-02-08T16:32:30.513Z,37.41
2023-02-08T16:35:19.150Z,37.42
2023-02-08T16:38:03.201Z,37.70
2023-02-08T16:40:54.140Z,37.76
2023-02-08T16:46:16.241Z,37.85
2023-02-08T16:48:56.304Z,38.02
2023-02-08T16:51:31.381Z,38.00
2023-02-08T16:54:12.177Z,38.01
2023-02-08T16:56:51.285Z,38.73
2023-02-08T16:59:20.522Z,38.55
2023-02-08T17:04:26.838Z,39.34
2023-02-08T17:07:02.261Z,40.02
2023-02-08T17:09:39.224Z,40.08
2023-02-08T17:12:22.368Z,40.30
2023-02-08T17:15:04.188Z,40.83
2023-02-08T17:17:32.116Z,40.85
2023-02-08T17:23:00.226Z,40.84
2023-02-08T17:25:30.123Z,40.91
2023-02-08T17:28:12.300Z,41.60
2023-02-08T17:30:57.285Z,42.40
2023-02-08T17:33:33.230Z,42.97
2023-02-08T17:36:12.180Z,42.93
2023-02-08T17:38:46.355Z,43.09
2023-02-08T17:41:23.165Z,43.04
2023-02-08T17:43:58.040Z,42.48
2023-02-08T17:46:37.216Z,42.58
2023-02-08T17:51:45.209Z,42.95
2023-02-08T17:54:17.229Z,43.23
2023-02-08T17:56:47.339Z,43.91
2023-02-08T17:59:14.876Z,44.21
2023-02-08T18:01:45.872Z,44.48
2023-02-08T18:04:15.075Z,44.39
2023-02-08T18:06:57.144Z,44.55
2023-02-08T18:09:35.162Z,44.38
2023-02-08T18:12:10.214Z,44.29
2023-02-08T18:14:53.253Z,44.10
2023-02-08T18:17:35.176Z,44.01
2023-02-08T18:20:10.128Z,44.12
2023-02-08T18:22:41.854Z,44.37
2023-02-08T18:27:55.436Z,44.50
2023-02-08T18:30:30.195Z,44.94
2023-02-08T18:35:40.485Z,43.43
2023-02-08T18:38:17.447Z,43.56
2023-02-08T18:43:28.033Z,43.93
2023-02-08T18:46:06.628Z,43.58
2023-02-08T18:48:38.753Z,43.58
2023-02-08T18:51:19.025Z,43.94
2023-02-08T18:53:58.122Z,44.07
2023-02-08T18:56:29.567Z,44.55
2023-02-08T19:01:45.631Z,45.09
2023-02-08T19:04:20.416Z,44.65
2023-02-08T19:07:02.279Z,45.77
2023-02-08T19:09:38.368Z,44.70
2023-02-08T19:12:11.206Z,44.94
2023-02-08T19:14:43.497Z,45.13
2023-02-08T19:17:14.722Z,45.24
2023-02-08T19:19:50.440Z,45.59
2023-02-08T19:22:24.544Z,45.68
2023-02-08T19:25:11.073Z,45.47
2023-02-08T19:27:45.211Z,45.57
2023-02-08T19:30:18.180Z,45.98
2023-02-08T19:32:54.139Z,46.72
2023-02-08T19:35:30.131Z,46.70
2023-02-08T19:38:07.331Z,46.48
2023-02-08T19:40:37.483Z,46.32
2023-02-08T19:46:08.152Z,47.06
2023-02-08T19:48:49.432Z,46.97
2023-02-08T19:51:20.804Z,46.94
2023-02-08T19:53:56.880Z,46.31
2023-02-08T19:56:33.889Z,47.15
2023-02-08T19:59:19.152Z,47.68
2023-02-08T20:04:34.406Z,47.38
2023-02-08T20:07:06.314Z,48.03
2023-02-08T20:12:16.525Z,48.03
2023-02-08T20:17:28.148Z,48.28
2023-02-08T20:20:00.277Z,48.43
2023-02-08T20:22:34.182Z,48.94
2023-02-08T20:25:04.489Z,48.76
2023-02-08T20:27:35.074Z,48.66
2023-02-08T20:30:05.227Z,48.96
2023-02-08T20:32:36.907Z,49.03
2023-02-08T20:35:06.114Z,49.39
2023-02-08T20:37:36.434Z,49.77
2023-02-08T20:40:12.939Z,49.43
2023-02-08T20:42:46.310Z,49.58
2023-02-08T20:45:27.278Z,49.98
2023-02-08T20:48:02.110Z,49.38
2023-02-08T20:50:34.216Z,50.45
2023-02-08T20:53:06.096Z,49.49
2023-02-08T20:55:44.680Z,49.95
2023-02-08T20:58:15.970Z,50.31
2023-02-08T21:00:46.542Z,50.40
2023-02-08T21:03:16.074Z,50.87
2023-02-08T21:05:49.257Z,50.66
2023-02-08T21:08:19.710Z,51.17
2023-02-08T21:10:50.488Z,51.75
2023-02-08T21:13:21.162Z,51.29
2023-02-08T21:15:53.313Z,51.50
2023-02-08T21:18:27.357Z,50.89
2023-02-08T21:21:05.108Z,50.78
2023-02-08T21:23:38.402Z,50.23
2023-02-08T21:26:13.492Z,50.53
2023-02-08T21:31:30.176Z,50.48
2023-02-08T21:34:06.386Z,50.70
2023-02-08T21:36:37.222Z,50.92
2023-02-08T21:39:06.060Z,50.65
2023-02-08T21:41:36.576Z,50.96
2023-02-08T21:44:12.068Z,51.33
2023-02-08T21:46:43.160Z,50.88
2023-02-08T21:49:32.310Z,51.50
2023-02-08T21:52:24.526Z,51.94
2023-02-08T21:57:39.985Z,51.21
2023-02-08T22:00:10.522Z,51.60
2023-02-08T22:02:40.221Z,52.04
2023-02-08T22:05:09.582Z,51.82
2023-02-08T22:07:47.374Z,52.12
2023-02-08T22:10:21.176Z,52.37
2023-02-08T22:12:52.558Z,52.39
2023-02-08T22:15:28.873Z,52.55
2023-02-08T22:17:58.894Z,52.19
2023-02-08T22:20:31.488Z,52.36
2023-02-08T22:23:00.301Z,51.92
2023-02-08T22:25:28.550Z,51.96
2023-02-08T22:28:00.593Z,52.28
2023-02-08T22:30:34.659Z,52.20
2023-02-08T22:33:06.362Z,52.66
2023-02-08T22:35:35.671Z,52.06
2023-02-08T22:38:06.657Z,52.67
2023-02-08T22:40:36.571Z,52.94
2023-02-08T22:43:05.424Z,52.65
2023-02-08T22:45:34.295Z,52.99
2023-02-08T22:48:01.929Z,53.26
2023-02-08T22:50:30.731Z,53.67
2023-02-08T22:53:01.218Z,53.22
2023-02-08T22:55:29.380Z,52.70
2023-02-08T22:58:02.142Z,52.56
2023-02-08T23:00:34.243Z,53.61
2023-02-08T23:03:03.074Z,53.62
2023-02-08T23:05:30.631Z,53.38
2023-02-08T23:08:01.220Z,53.49
2023-02-08T23:10:33.003Z,53.13
2023-02-08T23:13:02.605Z,53.69
2023-02-08T23:15:32.454Z,53.91
2023-02-08T23:18:01.902Z,53.36
2023-02-08T23:20:30.268Z,53.33
2023-02-08T23:22:58.264Z,53.14
2023-02-08T23:25:26.015Z,53.76
2023-02-08T23:27:55.264Z,54.05
2023-02-08T23:30:23.352Z,53.83
2023-02-08T23:32:51.640Z,53.46
2023-02-08T23:35:22.254Z,53.77
2023-02-08T23:37:52.273Z,54.16
2023-02-08T23:40:20.573Z,53.78
2023-02-08T23:42:48.546Z,53.72
2023-02-08T23:45:18.731Z,53.79
2023-02-08T23:47:46.393Z,53.81
2023-02-08T23:50:15.057Z,54.03
2023-02-08T23:52:43.332Z,54.25
2023-02-08T23:55:14.387Z,54.48
2023-02-08T23:57:43.734Z,54.71
